Aviation Digital Data Service (ADDS)

Output produced by METARs form (1003 UTC 19 January 2019)
found at http://www.aviationweather.gov/metar/data/
 
KVER 190955Z AUTO 36012G17KT 10SM OVC007 01/ A2986 RMK AO2 T0005
KBBG 190955Z AUTO 32006KT 1/4SM -RA OVC002 07/07 A2965 RMK AO2 P0002
KBBG 190858Z 1909/2006 34010KT 1SM -RA BR BKN002 
     TEMPO 1909/1912 2SM -RA BR 
     FM191200 33019G28KT 3SM -SHSN OVC005 
     FM191600 33019G29KT 2SM -SN OVC007 
     FM191800 33019G29KT P6SM OVC009 
     PROB30 1918/1920 4SM -SN OVC005 
     FM192300 33020KT P6SM OVC015
       
KFWB 190955Z AUTO 33013G25KT 300V360 1 1/2SM -RA OVC004 03/03 A2967 RMK AO2
KEZZ 190955Z AUTO 36022G30KT 5SM BR OVC012 M06/M08 A3000 RMK AO2 T10651083
KCGI 190953Z AUTO 06008KT 3SM -RA BR BKN004 BKN012 OVC024 09/08 A2962 RMK AO2 PRESFR SLP029 P0011 T00890078
KCGI 190520Z 1906/2006 13012KT 4SM -SHRA BR VCTS OVC006CB 
     FM191200 09010KT 4SM -RA VCTS OVC003CB 
     FM191500 01018G30KT 3SM -RA BR OVC004 
     FM192200 35023G36KT 3SM -SN BR OVC007 
     FM200200 35020G32KT P6SM OVC015
       
KGLY 190955Z AUTO 00000KT 2 1/2SM UP OVC008 00/00 A2986 RMK AO2
KCOU 190954Z AUTO 01014KT 10SM OVC005 01/00 A2981 RMK AO2 SLP101 T00110000
KCOU 190833Z 1909/2006 03013KT P6SM OVC005 
     FM190930 02016G22KT 3SM -SN BR OVC005 
     FM191400 36019G26KT 2SM -SN BLSN OVC006 
     FM191700 35018G28KT 4SM BLSN OVC009 
     FM192000 35018G27KT 6SM BLSN OVC015 
     FM200400 34015G25KT P6SM SCT030
       
KFAM 190956Z AUTO 35006KT 8SM OVC003 03/03 A2967 RMK AO2 RAE23 SLP051 P0001 T00330028
KTBN 190956Z AUTO 36011G16KT 10SM -RA OVC004 04/04 A2971 RMK AO2 CIG 003 RWY32 SLP068 P0001 T00380037 $
KHAE 190955Z AUTO 01008KT 4SM -SN OVC005 00/00 A2987 RMK AO2
KLRY 190955Z AUTO 36014G22KT 4SM -SN OVC012 M02/M05 A2997 RMK AO2
KJEF 190953Z AUTO 36009KT 10SM OVC009 02/00 A2981 RMK AO2 SLP088 T00170000
KJLN 190953Z AUTO 34019G30KT 3SM -SN BR OVC010 M02/M03 A2983 RMK AO2 PK WND 34030/0947 CIG 007V013 SLP103 P0001 T10171028
KJLN 190954Z 1910/2006 36020G30KT 3SM -SN BR OVC008 
     FM191200 34020G35KT 6SM -SHSN OVC010 
     FM191600 34020G35KT P6SM OVC012 
     FM192200 34018G28KT P6SM BKN020
       
KAIZ 190956Z AUTO 36008KT 320V030 4SM UP BR OVC004 02/02 A2978 RMK AO2 SLP088 P0000 T00220017 FZRANO
KMKC 190954Z 35015G26KT 10SM OVC014 M04/M08 A3000 RMK AO2 PK WND 35030/0935 SLP166 T10441078
KMKC 190604Z 1906/2006 36020G30KT 2SM -SN BLSN BR OVC008 
     TEMPO 1906/1908 1SM -SN BLSN 
     FM190900 36020G30KT 5SM BR OVC010 
     FM191100 36022G35KT 6SM BR BKN015 
     FM191700 35015G24KT P6SM BKN015 
     FM192200 35015G24KT P6SM SCT020 
     FM200100 35010KT P6SM SCT250
       
KMCI 190953Z 36023G41KT 6SM BR OVC012 M06/M07 A2998 RMK AO2 PK WND 35041/0951 SLP161 T10611067 $
KMCI 190604Z 1906/2006 36020G30KT 2SM -SN BLSN BR OVC008 
     TEMPO 1906/1908 1SM -SN BLSN 
     FM190900 36020G30KT 5SM BR OVC010 
     FM191100 36022G35KT 6SM BR BKN015 
     FM191700 35015G24KT P6SM BKN015 
     FM192200 35015G24KT P6SM SCT020 
     FM200100 35010KT P6SM SCT250
       
KTKX 190955Z AUTO 18010KT 9SM BKN012 OVC018 13/13 A2959 RMK AO2 LTG DSNT ALQDS
KIRK 190955Z AUTO 01014G23KT 2SM -SN BR OVC011 M04/M05 A2994 RMK AO2 PK WND 02026/0909 SLP152 P0000 T10441050
KLBO 190955Z AUTO 01012G18KT 4SM RA OVC002 05/04 A2971 RMK AO2 P0001 LTG DSNT SE
KLXT 190953Z AUTO 10SM OVC013 M05/M07 A2996 RMK AO2 PK WND 35030/0920 SNE02 SLP157 P0000 T10501067
KMAW 190955Z AUTO 18007KT 5SM -VCTSDZ OVC004 12/11 A2962 RMK AO2 P0001 LTG DSNT SE S AND NW
KMHL 190955Z AUTO 01017G24KT 1 3/4SM -SN BKN006 OVC010 M01/M02 A2991 RMK AO2
KEVU 190955Z AUTO 01019G26KT 5SM -SN OVC014 M07/M12 A3010 RMK AO2
KMYJ 190955Z AUTO 02012G18KT 10SM OVC005 00/00 A2981 RMK AO2
KMBY 190955Z AUTO 01015G23KT 5SM HZ OVC007 00/M02 A2986 RMK AO2
KHFJ 190955Z AUTO 34019G25KT 3SM -DZ OVC005 00/00 A2973 RMK AO2
KGPH 190955Z AUTO 36018G23KT 10SM M04/M06 A2999 RMK AO2
KPOF 191001Z AUTO 03008KT 3SM BR OVC005 09/09 A2960 RMK AO2 LTG DSNT SW-NW CIG 003V008 T00890089
KVIH 190953Z AUTO 01011KT 5SM UP BR OVC004 02/01 A2973 RMK AO2 RAE26UPB26 SLP074 P0001 T00170006
KSET 190954Z AUTO 03012KT 9SM UP FEW018 OVC047 02/01 A2976 RMK AO2 RAE42UPB22 SLP081 P0004 T00170006
KSTJ 190953Z AUTO 36022G30KT 5SM -SN BR OVC014 M07/M08 A3009 RMK AO2 PK WND 35031/0914 SLP198 P0000 T10671083 $
KSTJ 190604Z 1906/2006 36020G30KT 2SM -SN BLSN BR OVC008 
     TEMPO 1906/1907 1SM -SN BLSN 
     FM190700 36020G30KT 5SM BR OVC010 
     FM191100 36022G35KT 6SM BR BKN015 
     FM191700 35015G24KT P6SM BKN015 
     FM192000 35010KT P6SM SCT250
       
KSTL 190951Z 01012KT 8SM -RA BKN004 OVC017 02/01 A2976 RMK AO2 SLP085 P0005 T00170006
KSTL 190959Z 1910/2012 02014KT 6SM -RA BR OVC004 
     FM191300 01016G24KT 2SM -SN BR OVC004 
     FM191800 36017G30KT 1SM -SN BLSN OVC006 
     FM192300 35018G28KT 6SM BLSN OVC015 
     FM200300 35015G25KT P6SM BKN025 
     FM200900 34012KT P6SM SCT030
       
KSUS 190954Z AUTO 02006KT 7SM -RA BKN006 BKN016 OVC032 02/01 A2976 RMK AO2 SLP082 P0005 T00220011
KSUS 190834Z 1909/2006 03008KT 4SM -RA BR OVC005 
     FM191000 03014G20KT 3SM RA BR OVC004 
     FM191300 01016G24KT 2SM -SN BR OVC004 
     FM191800 36017G30KT 1SM -SN BLSN OVC006 
     FM192300 35018G28KT 6SM BLSN OVC015 
     FM200300 35015G25KT P6SM BKN025
       
KDMO 190953Z AUTO 36017G27KT 8SM OVC006 M01/M01 A2986 RMK AO2 PK WND 01027/0949 SLP120 T10111011
KSIK 190955Z AUTO 00000KT 7SM RA OVC006 11/11 A2962 RMK AO2 LTG DSNT S AND W
KSGF 190952Z 35022G32KT 4SM UP BR OVC005 02/01 A2970 RMK AO2 PK WND 34032/0950 RAE49UPB49 SLP062 P0000 T00220006
KSGF 190859Z 1909/2006 31015G22KT P6SM -RA OVC003 
     TEMPO 1910/1912 2SM SHRASN OVC001 
     FM191200 35024G34KT 3SM -SHSN OVC007 
     FM191600 35024G34KT 3SM -SN OVC007 
     FM191800 34023G34KT P6SM OVC009 
     PROB30 1918/1920 4SM -SN OVC005 
     FM200300 34016KT P6SM BKN025
       
KRCM 190955Z AUTO 34018G26KT 10SM OVC010 M02/M03 A2991 RMK AO2
KRAW 190955Z AUTO 36018G22KT 7SM OVC006 A2983 RMK AO2
KFYG 190955Z AUTO 36009G14KT 330V030 10SM SCT036 BKN042 BKN055 02/02 A2975 RMK AO2 P0001
KUNO 190953Z AUTO 03008KT 9SM -RA FEW004 BKN050 OVC065 06/06 A2962 RMK AO2 SLP030 P0026 T00610056